Time;durP1;ratioP1;P1;durP2;ratioP2;P2;SDS_P1;SDS_P2;PMS_P1;PMS_P2;Temp;Humidity;BMP_temperature;BMP_pressure;BME280_temperature;BME280_humidity;BME280_pressure;Samples;Min_cycle;Max_cycle;Signal;HPM_P1;HPM_P2
2023/08/11 00:01:59;;;;;;;1.10;0.80;;;18.30;99.90;;;;;;5058461;28;20429;-71
2023/08/11 00:04:26;;;;;;;1.00;0.60;;;18.20;99.90;;;;;;5075821;28;20911;-71
2023/08/11 00:06:54;;;;;;;1.08;0.70;;;18.20;99.90;;;;;;5071967;28;20753;-71
2023/08/11 00:09:22;;;;;;;1.67;0.80;;;18.20;99.90;;;;;;5077044;28;20435;-71
2023/08/11 00:11:50;;;;;;;1.00;0.60;;;18.10;99.90;;;;;;5071274;28;20940;-70
2023/08/11 00:14:17;;;;;;;1.20;0.63;;;18.10;99.90;;;;;;5076743;28;20435;-72
2023/08/11 00:16:44;;;;;;;1.60;0.70;;;18.00;99.90;;;;;;5072284;28;20431;-71
2023/08/11 00:19:11;;;;;;;1.20;0.70;;;18.00;99.90;;;;;;5076718;28;20457;-72
2023/08/11 00:21:38;;;;;;;1.00;0.70;;;18.00;99.90;;;;;;5069102;28;20529;-72
2023/08/11 00:24:05;;;;;;;1.00;0.60;;;18.00;99.90;;;;;;5057374;28;20425;-73
2023/08/11 00:26:34;;;;;;;1.88;0.80;;;18.00;99.90;;;;;;5063741;28;20522;-71
2023/08/11 00:29:01;;;;;;;1.38;0.60;;;18.00;99.90;;;;;;5076235;28;20467;-70
2023/08/11 00:31:28;;;;;;;1.10;0.80;;;18.00;99.90;;;;;;5070146;28;20723;-71
2023/08/11 00:33:55;;;;;;;0.90;0.70;;;18.00;99.90;;;;;;5074747;28;20408;-70
2023/08/11 00:36:22;;;;;;;1.08;0.70;;;18.00;99.90;;;;;;5068926;28;20446;-70
2023/08/11 00:38:49;;;;;;;1.20;0.70;;;18.10;99.90;;;;;;5074354;28;20739;-72
2023/08/11 00:41:16;;;;;;;1.00;0.70;;;18.10;99.90;;;;;;5070939;28;20424;-71
2023/08/11 00:43:44;;;;;;;0.85;0.70;;;18.20;99.90;;;;;;5075043;28;20947;-70
2023/08/11 00:46:13;;;;;;;1.50;0.70;;;18.20;99.90;;;;;;5068362;28;20514;-71
2023/08/11 00:48:42;;;;;;;1.02;0.70;;;18.20;99.90;;;;;;5076010;28;20463;-70
2023/08/11 00:51:10;;;;;;;1.00;0.70;;;18.20;99.90;;;;;;5071199;28;20518;-70
2023/08/11 00:53:37;;;;;;;1.30;0.70;;;18.10;99.90;;;;;;5076203;28;20514;-71
2023/08/11 00:56:05;;;;;;;2.03;0.80;;;18.10;99.90;;;;;;5071425;28;20530;-71
2023/08/11 00:58:33;;;;;;;1.00;0.70;;;18.00;99.90;;;;;;5075562;28;20502;-71
2023/08/11 01:01:01;;;;;;;0.90;0.70;;;17.90;99.90;;;;;;5055371;28;20425;-71
2023/08/11 01:03:28;;;;;;;1.00;0.70;;;17.90;99.90;;;;;;5056971;28;20432;-71
2023/08/11 01:06:06;;;;;;;1.60;0.80;;;17.80;99.90;;;;;;5071867;28;20431;-71
2023/08/11 01:08:42;;;;;;;1.30;0.70;;;17.80;99.90;;;;;;5072152;28;20592;-70
2023/08/11 01:11:17;;;;;;;0.90;0.60;;;17.70;99.90;;;;;;5075497;28;20481;-71
2023/08/11 01:13:53;;;;;;;0.90;0.70;;;17.80;99.90;;;;;;5070531;28;20487;-71
2023/08/11 01:16:23;;;;;;;1.20;0.70;;;17.80;99.90;;;;;;5076153;28;20414;-70
2023/08/11 01:18:51;;;;;;;2.10;0.80;;;17.70;1.00;;;;;;5069994;28;20445;-71
2023/08/11 01:21:20;;;;;;;1.10;0.70;;;17.70;99.90;;;;;;5075756;28;20514;-72
2023/08/11 01:23:48;;;;;;;1.20;0.80;;;17.70;99.90;;;;;;5069917;28;20461;-72
2023/08/11 01:26:16;;;;;;;1.52;0.70;;;17.70;99.90;;;;;;5056175;28;20425;-71
2023/08/11 01:28:43;;;;;;;1.17;0.70;;;17.60;99.90;;;;;;5061435;28;20522;-71
2023/08/11 01:31:10;;;;;;;1.10;0.70;;;17.60;1.00;;;;;;5075946;28;20415;-71
2023/08/11 01:33:40;;;;;;;0.87;0.70;;;17.60;1.00;;;;;;5070293;28;20507;-71
2023/08/11 01:36:08;;;;;;;1.20;0.70;;;17.50;1.00;;;;;;5075188;28;20522;-71
2023/08/11 01:38:35;;;;;;;1.05;0.70;;;17.50;1.00;;;;;;5074207;28;20438;-71
2023/08/11 01:41:03;;;;;;;1.10;0.70;;;17.50;1.00;;;;;;5075187;28;20905;-71
2023/08/11 01:43:30;;;;;;;0.90;0.70;;;17.50;1.00;;;;;;5069347;28;20475;-71
2023/08/11 01:45:58;;;;;;;1.20;0.80;;;17.40;1.00;;;;;;5075363;28;20412;-71
2023/08/11 01:48:27;;;;;;;1.10;0.70;;;17.40;1.00;;;;;;5072449;28;20443;-71
2023/08/11 01:50:54;;;;;;;1.00;0.70;;;17.30;1.00;;;;;;5075134;28;20509;-71
2023/08/11 01:53:21;;;;;;;2.80;0.70;;;17.30;1.00;;;;;;5074688;28;20463;-71
2023/08/11 01:55:50;;;;;;;1.00;0.80;;;17.30;1.00;;;;;;5075047;28;20467;-70
2023/08/11 01:58:18;;;;;;;1.10;0.80;;;17.30;1.00;;;;;;5059153;28;20428;-71
2023/08/11 02:00:45;;;;;;;1.00;0.70;;;17.40;1.00;;;;;;5055705;28;20409;-71
2023/08/11 02:03:12;;;;;;;1.90;0.80;;;17.40;1.00;;;;;;5068979;28;20435;-70
2023/08/11 02:05:39;;;;;;;2.30;0.80;;;17.30;1.00;;;;;;5075335;28;20427;-71
2023/08/11 02:08:07;;;;;;;0.80;0.60;;;17.30;1.00;;;;;;5070077;28;20458;-72
2023/08/11 02:10:34;;;;;;;1.00;0.70;;;17.30;1.00;;;;;;5074098;28;20839;-71
2023/08/11 02:13:01;;;;;;;2.50;1.00;;;17.30;1.00;;;;;;5069477;28;20481;-72
2023/08/11 02:15:30;;;;;;;0.90;0.70;;;17.20;1.00;;;;;;5074263;28;20518;-71
2023/08/11 02:17:57;;;;;;;1.40;0.80;;;17.20;1.00;;;;;;5074332;28;20510;-71
2023/08/11 02:20:24;;;;;;;1.50;0.70;;;17.20;1.00;;;;;;5072432;28;20788;-72
2023/08/11 02:22:51;;;;;;;1.13;0.70;;;17.10;1.00;;;;;;5072958;28;20895;-71
2023/08/11 02:25:18;;;;;;;1.50;1.00;;;17.10;1.00;;;;;;5072944;28;20482;-72
2023/08/11 02:27:45;;;;;;;1.10;0.70;;;17.00;1.00;;;;;;5055374;28;20440;-72
2023/08/11 02:30:13;;;;;;;1.37;0.77;;;17.00;1.00;;;;;;5054907;28;20491;-71
2023/08/11 02:32:45;;;;;;;1.10;0.73;;;17.00;1.00;;;;;;5074849;28;20427;-71
2023/08/11 02:35:12;;;;;;;1.05;0.70;;;17.00;1.00;;;;;;5073246;28;20435;-71
2023/08/11 02:37:39;;;;;;;1.02;0.70;;;17.00;1.00;;;;;;5074926;28;20548;-71
2023/08/11 02:40:08;;;;;;;0.93;0.70;;;17.00;1.00;;;;;;5068370;28;20436;-71
2023/08/11 02:42:38;;;;;;;1.10;0.70;;;17.00;1.00;;;;;;5074924;28;20438;-71
2023/08/11 02:45:09;;;;;;;1.33;0.70;;;17.00;1.00;;;;;;5067296;28;20534;-73
2023/08/11 02:47:38;;;;;;;1.35;0.70;;;17.00;1.00;;;;;;5054441;28;20845;-72
2023/08/11 02:50:08;;;;;;;1.00;0.70;;;17.00;1.00;;;;;;5059911;28;20419;-71
2023/08/11 02:52:35;;;;;;;1.15;0.70;;;17.00;1.00;;;;;;5074384;28;20849;-73
2023/08/11 02:55:03;;;;;;;0.90;0.70;;;16.90;1.00;;;;;;5062081;28;20530;-72
2023/08/11 02:57:31;;;;;;;1.00;0.70;;;16.90;1.00;;;;;;5054953;28;20869;-71
2023/08/11 03:00:00;;;;;;;1.40;0.70;;;16.90;1.00;;;;;;5055330;28;20441;-71
2023/08/11 03:02:27;;;;;;;2.10;0.75;;;16.90;1.00;;;;;;5054722;28;20731;-70
2023/08/11 03:04:54;;;;;;;1.50;0.70;;;16.90;1.00;;;;;;5067105;28;20525;-71
2023/08/11 03:07:22;;;;;;;0.93;0.70;;;16.80;1.00;;;;;;5073998;28;20518;-71
2023/08/11 03:09:49;;;;;;;1.25;0.77;;;16.80;1.00;;;;;;5072699;28;20514;-71
2023/08/11 03:12:16;;;;;;;1.00;0.70;;;16.80;1.00;;;;;;5074121;28;20451;-71
2023/08/11 03:14:43;;;;;;;1.00;0.70;;;16.80;1.00;;;;;;5061701;28;20528;-71
2023/08/11 03:17:13;;;;;;;1.30;0.80;;;16.90;1.00;;;;;;5051210;28;20909;-71
2023/08/11 03:19:40;;;;;;;2.20;0.97;;;16.80;1.00;;;;;;5064954;28;20478;-72
2023/08/11 03:22:07;;;;;;;1.50;0.98;;;16.80;1.00;;;;;;5072125;28;20786;-72
2023/08/11 03:24:35;;;;;;;1.30;1.00;;;16.70;1.00;;;;;;5065794;28;20523;-70
2023/08/11 03:27:02;;;;;;;1.50;0.90;;;16.60;1.00;;;;;;5071811;28;20518;-72
2023/08/11 03:29:29;;;;;;;1.40;0.82;;;16.70;1.00;;;;;;5058495;28;20444;-71
2023/08/11 03:31:56;;;;;;;2.50;0.90;;;16.70;1.00;;;;;;5053048;28;20433;-71
2023/08/11 03:34:23;;;;;;;1.20;0.80;;;16.80;1.00;;;;;;5057077;28;20425;-71
2023/08/11 03:36:50;;;;;;;1.70;0.90;;;16.80;1.00;;;;;;5057264;28;20516;-70
2023/08/11 03:39:17;;;;;;;1.20;0.80;;;16.70;1.00;;;;;;5068302;28;20526;-72
2023/08/11 03:41:45;;;;;;;1.08;0.80;;;16.80;1.00;;;;;;5077828;28;20894;-71
2023/08/11 03:44:12;;;;;;;1.50;0.80;;;16.80;1.00;;;;;;5075138;28;20526;-72
2023/08/11 03:46:39;;;;;;;1.10;0.80;;;16.80;1.00;;;;;;5077597;28;20463;-72
2023/08/11 03:49:06;;;;;;;1.92;0.80;;;16.80;1.00;;;;;;5063794;28;20429;-71
2023/08/11 03:51:33;;;;;;;1.10;0.80;;;16.80;1.00;;;;;;5058172;28;20455;-71
2023/08/11 03:54:02;;;;;;;1.10;0.80;;;16.80;1.00;;;;;;5070887;28;20438;-71
2023/08/11 03:56:29;;;;;;;1.30;0.80;;;16.80;1.00;;;;;;5077152;28;20419;-71
2023/08/11 03:58:57;;;;;;;1.20;0.70;;;16.80;1.00;;;;;;5074639;28;20569;-72
2023/08/11 04:01:24;;;;;;;1.10;0.82;;;16.80;1.00;;;;;;5075992;28;20820;-71
2023/08/11 04:03:51;;;;;;;1.00;0.80;;;16.80;1.00;;;;;;5074796;28;20427;-71
2023/08/11 04:06:18;;;;;;;2.80;0.90;;;16.80;1.00;;;;;;5076539;28;20481;-71
2023/08/11 04:08:45;;;;;;;1.67;0.82;;;16.80;1.00;;;;;;5074428;28;20475;-71
2023/08/11 04:11:12;;;;;;;1.10;0.70;;;16.70;1.00;;;;;;5075774;28;20685;-72
2023/08/11 04:13:39;;;;;;;1.20;0.90;;;16.70;1.00;;;;;;5072345;28;20738;-70
2023/08/11 04:16:09;;;;;;;1.10;0.80;;;16.70;1.00;;;;;;5074041;28;20510;-70
2023/08/11 04:18:36;;;;;;;1.02;0.70;;;16.70;1.00;;;;;;5058664;28;20441;-71
2023/08/11 04:21:03;;;;;;;1.88;0.85;;;16.80;1.00;;;;;;5058611;28;20429;-72
2023/08/11 04:23:30;;;;;;;1.30;0.80;;;16.80;1.00;;;;;;5074253;28;20524;-71
2023/08/11 04:25:57;;;;;;;1.10;0.80;;;16.80;1.00;;;;;;5073704;28;20427;-71
2023/08/11 04:28:23;;;;;;;1.23;0.80;;;16.80;1.00;;;;;;5055386;28;20519;-71
2023/08/11 04:30:50;;;;;;;1.30;0.73;;;16.80;1.00;;;;;;5060622;28;20503;-71
2023/08/11 04:33:19;;;;;;;1.20;0.80;;;16.80;1.00;;;;;;5057200;28;20434;-72
2023/08/11 04:35:45;;;;;;;1.60;0.90;;;16.90;1.00;;;;;;5061529;28;20440;-71
2023/08/11 04:38:13;;;;;;;1.70;0.80;;;16.90;1.00;;;;;;5075802;28;20846;-72
2023/08/11 04:40:40;;;;;;;1.20;0.80;;;17.00;1.00;;;;;;5069327;28;20431;-71
2023/08/11 04:43:08;;;;;;;2.10;0.80;;;17.00;1.00;;;;;;5075150;28;20858;-71
2023/08/11 04:45:35;;;;;;;2.30;0.90;;;17.10;1.00;;;;;;5064768;28;20441;-71
2023/08/11 04:48:02;;;;;;;1.58;0.88;;;17.10;1.00;;;;;;5054519;28;20445;-72
2023/08/11 04:50:30;;;;;;;1.10;0.80;;;17.10;1.00;;;;;;5064177;28;20459;-72
2023/08/11 04:52:57;;;;;;;3.00;0.90;;;17.10;1.00;;;;;;5075152;28;20416;-72
2023/08/11 04:55:24;;;;;;;1.60;0.90;;;17.10;1.00;;;;;;5062610;28;20456;-71
2023/08/11 04:57:51;;;;;;;1.50;0.90;;;16.90;1.00;;;;;;5054313;28;20420;-71
2023/08/11 05:00:19;;;;;;;1.70;0.90;;;16.80;1.00;;;;;;5066221;28;20538;-72
2023/08/11 05:02:46;;;;;;;2.20;0.90;;;16.80;1.00;;;;;;5073342;28;20819;-71
2023/08/11 05:05:13;;;;;;;1.80;0.80;;;16.80;1.00;;;;;;5071821;28;20435;-71
2023/08/11 05:07:42;;;;;;;1.40;0.80;;;16.90;1.00;;;;;;5074489;28;20439;-71
2023/08/11 05:10:10;;;;;;;1.33;0.80;;;16.90;1.00;;;;;;5062633;28;20425;-71
2023/08/11 05:12:37;;;;;;;1.30;0.80;;;16.90;1.00;;;;;;5055926;28;20429;-71
2023/08/11 05:15:04;;;;;;;1.33;0.80;;;17.00;1.00;;;;;;5060488;28;20436;-71
2023/08/11 05:17:32;;;;;;;1.20;0.88;;;17.00;1.00;;;;;;5056222;28;20429;-73
2023/08/11 05:19:59;;;;;;;1.20;0.80;;;17.00;1.00;;;;;;5071944;28;20503;-72
2023/08/11 05:22:26;;;;;;;1.55;0.80;;;17.00;1.00;;;;;;5074289;28;20424;-73
2023/08/11 05:24:54;;;;;;;1.25;0.88;;;17.00;1.00;;;;;;5060150;28;20464;-73
2023/08/11 05:27:21;;;;;;;1.13;0.80;;;17.10;1.00;;;;;;5054228;28;20425;-73
2023/08/11 05:29:49;;;;;;;1.60;0.80;;;17.10;1.00;;;;;;5067876;28;20463;-72
2023/08/11 05:32:17;;;;;;;1.40;0.90;;;17.20;1.00;;;;;;5074811;28;20960;-72
2023/08/11 05:34:44;;;;;;;1.50;0.93;;;17.30;1.00;;;;;;5058477;28;20444;-71
2023/08/11 05:37:12;;;;;;;1.23;0.80;;;17.30;1.00;;;;;;5057056;28;20421;-72
2023/08/11 05:39:39;;;;;;;1.20;0.90;;;17.30;1.00;;;;;;5075628;28;20514;-72
2023/08/11 05:42:08;;;;;;;1.33;0.90;;;17.50;1.00;;;;;;5073444;28;21088;-73
2023/08/11 05:44:35;;;;;;;1.50;0.80;;;17.60;1.00;;;;;;5055532;28;20888;-72
2023/08/11 05:47:02;;;;;;;3.10;0.90;;;17.60;99.90;;;;;;5057421;28;20492;-73
2023/08/11 05:49:29;;;;;;;1.20;0.90;;;17.70;99.90;;;;;;5055171;28;20473;-71
2023/08/11 05:51:56;;;;;;;1.05;0.80;;;17.70;99.90;;;;;;5056636;28;20503;-71
2023/08/11 05:54:23;;;;;;;2.00;0.80;;;17.70;99.90;;;;;;5075950;28;20439;-71
2023/08/11 05:56:52;;;;;;;1.80;0.95;;;17.80;99.90;;;;;;5073290;28;20527;-72
2023/08/11 05:59:21;;;;;;;1.30;0.80;;;17.80;99.90;;;;;;5077092;28;20428;-73
2023/08/11 06:01:48;;;;;;;1.30;0.90;;;17.90;99.90;;;;;;5072789;28;20461;-73
2023/08/11 06:04:15;;;;;;;2.17;1.10;;;17.90;97.50;;;;;;5076627;28;20507;-72
2023/08/11 06:06:41;;;;;;;1.70;0.80;;;18.00;66.60;;;;;;5072579;28;20456;-71
2023/08/11 06:09:09;;;;;;;1.20;0.80;;;18.00;73.80;;;;;;5056317;28;20548;-72
2023/08/11 06:11:39;;;;;;;1.77;0.90;;;18.00;99.90;;;;;;5052531;28;20425;-71
2023/08/11 06:14:06;;;;;;;1.67;0.88;;;18.00;99.90;;;;;;5052714;28;20461;-72
2023/08/11 06:16:34;;;;;;;1.60;0.90;;;18.10;99.90;;;;;;5048628;28;20421;-70
2023/08/11 06:19:01;;;;;;;1.40;1.00;;;18.10;99.90;;;;;;5053509;28;20417;-70
2023/08/11 06:21:28;;;;;;;1.92;0.80;;;18.20;99.90;;;;;;5054931;28;20429;-71
2023/08/11 06:23:55;;;;;;;1.63;1.00;;;18.30;99.90;;;;;;5054447;28;20457;-71
2023/08/11 06:26:22;;;;;;;2.35;0.90;;;18.30;99.90;;;;;;5053896;28;20429;-70
2023/08/11 06:28:49;;;;;;;1.00;0.70;;;18.40;99.90;;;;;;5053245;28;20468;-73
2023/08/11 06:31:19;;;;;;;1.40;0.80;;;18.40;63.70;;;;;;5051863;28;20420;-72
2023/08/11 06:33:48;;;;;;;1.73;0.90;;;18.50;17.70;;;;;;5053452;28;20421;-73
2023/08/11 06:36:15;;;;;;;1.00;0.70;;;18.60;1.00;;;;;;5054260;28;20449;-72
2023/08/11 06:38:42;;;;;;;1.10;0.70;;;18.80;1.00;;;;;;5053391;28;20885;-72
2023/08/11 06:41:09;;;;;;;1.48;0.80;;;18.90;1.00;;;;;;5053348;28;20433;-73
2023/08/11 06:43:36;;;;;;;2.50;0.80;;;19.00;99.90;;;;;;5053399;28;20479;-74
2023/08/11 06:46:03;;;;;;;3.30;0.90;;;19.10;99.90;;;;;;5053314;28;20512;-72
2023/08/11 06:48:30;;;;;;;1.50;0.90;;;19.20;99.90;;;;;;5053627;28;20537;-72
2023/08/11 06:50:58;;;;;;;5.20;1.20;;;19.30;44.70;;;;;;5053529;28;20439;-72
2023/08/11 06:53:25;;;;;;;1.40;1.00;;;19.40;99.90;;;;;;5054034;28;20436;-73
2023/08/11 06:55:52;;;;;;;2.60;1.00;;;19.40;1.00;;;;;;5053701;28;20456;-72
2023/08/11 06:58:19;;;;;;;2.42;1.30;;;19.50;1.00;;;;;;5054423;28;20496;-72
2023/08/11 07:00:46;;;;;;;1.67;1.20;;;19.60;1.00;;;;;;5053159;28;20421;-73
2023/08/11 07:03:13;;;;;;;1.30;0.90;;;19.70;99.90;;;;;;5052291;28;20453;-72
2023/08/11 07:05:40;;;;;;;2.45;1.00;;;19.70;99.90;;;;;;5052467;28;20425;-72
2023/08/11 07:08:08;;;;;;;3.70;1.10;;;19.90;99.90;;;;;;5052071;28;20445;-72
2023/08/11 07:10:35;;;;;;;1.53;1.00;;;20.00;94.90;;;;;;5054823;28;20544;-72
2023/08/11 07:13:02;;;;;;;2.40;1.00;;;20.00;5.90;;;;;;5055976;28;20936;-72
2023/08/11 07:15:29;;;;;;;1.80;0.90;;;20.20;1.00;;;;;;5056895;28;20798;-73
2023/08/11 07:17:56;;;;;;;1.60;0.93;;;20.20;1.00;;;;;;5057564;28;20495;-72
2023/08/11 07:20:23;;;;;;;2.25;0.95;;;20.30;1.00;;;;;;5057042;28;20417;-72
2023/08/11 07:22:51;;;;;;;2.20;1.10;;;20.40;1.00;;;;;;5057795;28;20860;-71
2023/08/11 07:25:19;;;;;;;1.70;0.90;;;20.50;99.90;;;;;;5056264;28;21044;-72
2023/08/11 07:27:46;;;;;;;2.67;1.10;;;20.60;99.90;;;;;;5057340;28;20515;-72
2023/08/11 07:30:13;;;;;;;3.67;1.00;;;20.70;99.90;;;;;;5050986;28;20536;-72
2023/08/11 07:32:42;;;;;;;1.20;0.90;;;20.70;99.90;;;;;;5054294;28;20464;-72
2023/08/11 07:35:09;;;;;;;2.00;1.00;;;20.80;1.00;;;;;;5056114;28;20918;-72
2023/08/11 07:37:36;;;;;;;2.03;0.90;;;20.90;1.00;;;;;;5054856;28;20797;-72
2023/08/11 07:40:04;;;;;;;2.00;1.10;;;21.00;1.00;;;;;;5055124;28;20795;-72
2023/08/11 07:42:32;;;;;;;2.20;0.93;;;21.00;99.90;;;;;;5054240;28;20439;-72
2023/08/11 07:45:00;;;;;;;1.20;0.80;;;21.00;1.00;;;;;;5070787;28;20525;-73
2023/08/11 07:47:27;;;;;;;3.20;0.90;;;21.10;99.90;;;;;;5060714;28;20518;-72
2023/08/11 07:49:54;;;;;;;2.00;0.90;;;21.30;99.90;;;;;;5055110;28;20441;-72
2023/08/11 07:52:20;;;;;;;2.00;1.00;;;21.50;1.00;;;;;;5055558;28;20508;-72
2023/08/11 07:54:47;;;;;;;1.50;0.90;;;21.50;1.00;;;;;;5056019;28;20417;-72
2023/08/11 07:57:14;;;;;;;4.22;0.90;;;21.50;1.00;;;;;;5057290;28;20516;-72
2023/08/11 07:59:46;;;;;;;1.10;0.73;;;21.50;1.00;;;;;;5055883;28;20839;-72
2023/08/11 08:02:13;;;;;;;1.30;0.83;;;21.70;1.00;;;;;;5072696;28;20517;-73
2023/08/11 08:04:40;;;;;;;1.60;0.90;;;21.90;1.00;;;;;;5073784;28;20808;-71
2023/08/11 08:07:07;;;;;;;2.00;1.00;;;22.00;1.00;;;;;;5075141;28;20423;-71
2023/08/11 08:09:35;;;;;;;3.40;0.90;;;22.10;1.00;;;;;;5059568;28;20791;-72
2023/08/11 08:12:02;;;;;;;1.50;0.90;;;22.10;1.00;;;;;;5055096;28;20527;-71
2023/08/11 08:14:29;;;;;;;2.80;0.95;;;22.20;99.90;;;;;;5071390;28;20434;-72
2023/08/11 08:17:01;;;;;;;1.30;0.90;;;22.40;99.90;;;;;;5073298;28;20474;-72
2023/08/11 08:19:28;;;;;;;1.55;0.90;;;22.50;99.90;;;;;;5073761;28;20434;-72
2023/08/11 08:21:55;;;;;;;1.20;0.80;;;22.50;99.90;;;;;;5070674;28;20428;-72
2023/08/11 08:24:22;;;;;;;1.90;0.90;;;22.60;99.90;;;;;;5055888;28;20911;-72
2023/08/11 08:26:51;;;;;;;1.87;0.90;;;22.70;99.90;;;;;;5058026;28;20515;-72
2023/08/11 08:29:18;;;;;;;2.10;1.00;;;22.80;99.90;;;;;;5076148;28;20558;-72
2023/08/11 08:31:45;;;;;;;1.83;1.00;;;22.90;15.20;;;;;;5070783;28;20942;-73
2023/08/11 08:34:13;;;;;;;1.15;0.80;;;23.10;1.00;;;;;;5053260;28;20520;-72
2023/08/11 08:36:40;;;;;;;1.40;0.90;;;23.20;1.00;;;;;;5054837;28;20433;-72
2023/08/11 08:39:07;;;;;;;2.97;1.00;;;23.20;1.00;;;;;;5053990;28;20691;-72
2023/08/11 08:41:39;;;;;;;2.75;0.80;;;23.30;1.00;;;;;;5059097;28;20483;-71
2023/08/11 08:44:06;;;;;;;1.20;0.90;;;23.40;1.00;;;;;;5054320;28;20429;-73
2023/08/11 08:46:34;;;;;;;1.30;0.90;;;23.60;1.00;;;;;;5062724;28;20549;-72
2023/08/11 08:49:10;;;;;;;1.10;0.70;;;23.60;1.00;;;;;;5070582;28;20431;-72
2023/08/11 08:51:42;;;;;;;1.50;0.70;;;23.70;1.00;;;;;;5045396;28;20466;-72
2023/08/11 08:54:10;;;;;;;1.70;0.85;;;23.80;1.00;;;;;;5054209;28;20479;-72
2023/08/11 08:56:38;;;;;;;1.40;0.90;;;23.90;1.00;;;;;;5064371;28;20438;-72
2023/08/11 08:59:06;;;;;;;1.10;0.90;;;24.10;1.00;;;;;;5073073;28;20851;-72
2023/08/11 09:01:35;;;;;;;1.00;0.80;;;24.30;99.90;;;;;;5068519;28;20964;-72
2023/08/11 09:04:02;;;;;;;1.50;0.80;;;24.40;1.00;;;;;;5075033;28;20416;-72
2023/08/11 09:06:33;;;;;;;1.02;0.80;;;24.50;99.90;;;;;;5057225;28;20539;-72
2023/08/11 09:09:06;;;;;;;1.00;0.70;;;24.70;99.90;;;;;;5055410;28;20516;-72
2023/08/11 09:11:34;;;;;;;1.85;0.80;;;24.80;99.90;;;;;;5056212;28;20436;-72
2023/08/11 09:14:06;;;;;;;1.67;0.90;;;24.80;99.90;;;;;;5053104;28;20933;-72
2023/08/11 09:16:34;;;;;;;1.60;0.90;;;24.80;99.90;;;;;;5068571;28;20471;-72
2023/08/11 09:19:02;;;;;;;1.40;0.90;;;24.90;99.90;;;;;;5073495;28;20474;-73
2023/08/11 09:21:30;;;;;;;2.40;0.90;;;25.00;99.90;;;;;;5072182;28;20506;-72
2023/08/11 09:23:57;;;;;;;1.60;0.80;;;25.00;99.90;;;;;;5073603;28;20458;-72
2023/08/11 09:26:26;;;;;;;2.30;0.90;;;25.00;99.90;;;;;;5074240;28;20449;-72
2023/08/11 09:28:54;;;;;;;2.60;1.00;;;25.10;99.90;;;;;;5074175;28;20435;-73
2023/08/11 09:31:22;;;;;;;1.60;0.90;;;25.20;99.90;;;;;;5074413;28;20462;-72
2023/08/11 09:33:49;;;;;;;1.20;0.80;;;25.40;99.90;;;;;;5060860;28;20432;-72
2023/08/11 09:36:17;;;;;;;1.10;0.80;;;25.30;99.90;;;;;;5054938;28;20460;-71
2023/08/11 09:38:45;;;;;;;1.38;0.80;;;25.50;99.90;;;;;;5053724;28;20452;-72
2023/08/11 09:41:13;;;;;;;1.13;0.80;;;25.50;99.90;;;;;;5051892;28;20514;-71
2023/08/11 09:43:48;;;;;;;1.63;0.80;;;25.70;99.90;;;;;;5052693;28;20433;-71
2023/08/11 09:46:15;;;;;;;2.65;0.80;;;25.90;99.90;;;;;;5052433;28;20920;-72
2023/08/11 09:48:42;;;;;;;1.13;0.80;;;26.00;99.90;;;;;;5053774;28;20887;-72
2023/08/11 09:51:11;;;;;;;1.30;0.90;;;26.00;99.90;;;;;;5047206;28;21059;-72
2023/08/11 09:53:42;;;;;;;2.50;1.20;;;26.00;99.90;;;;;;5053429;28;20772;-72
2023/08/11 09:56:13;;;;;;;1.00;0.80;;;26.20;99.90;;;;;;5052417;28;20420;-72
2023/08/11 09:58:46;;;;;;;1.02;0.85;;;26.30;99.90;;;;;;5053313;28;20429;-71
2023/08/11 10:01:15;;;;;;;1.30;0.80;;;26.40;99.90;;;;;;5052942;28;20457;-72
2023/08/11 10:03:44;;;;;;;1.80;0.80;;;26.50;99.90;;;;;;5053233;28;20524;-72
2023/08/11 10:06:17;;;;;;;1.20;0.80;;;26.80;99.90;;;;;;5053249;28;20734;-72
2023/08/11 10:08:46;;;;;;;1.00;0.70;;;27.00;99.90;;;;;;5052659;28;20428;-72
2023/08/11 10:11:13;;;;;;;1.37;0.80;;;27.30;99.90;;;;;;5052926;28;20494;-72
2023/08/11 10:13:43;;;;;;;1.20;0.80;;;27.30;99.90;;;;;;5051516;28;20799;-72
2023/08/11 10:16:12;;;;;;;1.10;0.90;;;27.30;99.90;;;;;;5061022;28;20504;-72
2023/08/11 10:18:40;;;;;;;1.20;0.90;;;27.50;99.90;;;;;;5071508;28;20432;-73
2023/08/11 10:21:08;;;;;;;1.50;0.70;;;27.60;99.90;;;;;;5064007;28;20460;-72
2023/08/11 10:23:35;;;;;;;1.10;0.80;;;27.50;99.90;;;;;;5054216;28;20853;-72
2023/08/11 10:26:05;;;;;;;1.05;0.80;;;27.70;99.90;;;;;;5054060;28;20426;-71
2023/08/11 10:28:33;;;;;;;1.50;0.80;;;28.00;99.90;;;;;;5053451;28;20511;-71
2023/08/11 10:31:08;;;;;;;1.10;0.80;;;28.40;99.90;;;;;;5053326;28;20908;-70
2023/08/11 10:33:35;;;;;;;1.60;0.80;;;28.70;99.90;;;;;;5052921;28;20443;-72
2023/08/11 10:36:02;;;;;;;1.15;0.80;;;28.80;99.90;;;;;;5052702;28;20757;-71
2023/08/11 10:38:31;;;;;;;1.60;0.80;;;28.80;99.90;;;;;;5053100;28;20726;-71
2023/08/11 10:41:01;;;;;;;2.10;0.80;;;28.90;99.90;;;;;;5051957;28;20413;-71
2023/08/11 10:43:34;;;;;;;2.83;0.82;;;29.10;99.90;;;;;;5052263;28;20460;-71
2023/08/11 10:46:21;;;;;;;1.80;0.75;;;29.40;99.90;;;;;;5057182;28;20428;-71
2023/08/11 10:48:48;;;;;;;1.10;0.80;;;29.60;99.90;;;;;;5056561;28;20803;-71
2023/08/11 10:51:29;;;;;;;1.30;0.70;;;29.60;99.90;;;;;;5055528;28;20472;-72
2023/08/11 10:53:58;;;;;;;1.13;0.80;;;29.90;99.90;;;;;;5037543;28;20887;-71
2023/08/11 10:56:30;;;;;;;1.90;0.75;;;30.20;99.90;;;;;;5053896;28;20429;-70
2023/08/11 10:59:08;;;;;;;1.00;0.70;;;30.50;99.90;;;;;;5057001;28;20464;-71
2023/08/11 11:01:40;;;;;;;1.35;0.70;;;30.70;99.70;;;;;;5057705;28;20425;-71
2023/08/11 11:04:07;;;;;;;1.08;0.80;;;30.70;99.00;;;;;;5057077;28;20508;-71
2023/08/11 11:06:35;;;;;;;0.90;0.80;;;30.80;98.00;;;;;;5055781;28;20460;-71
2023/08/11 11:09:03;;;;;;;1.00;0.70;;;30.60;97.20;;;;;;5057650;28;20507;-72
2023/08/11 11:11:31;;;;;;;1.00;0.80;;;30.70;96.70;;;;;;5077402;28;20475;-71
2023/08/11 11:13:59;;;;;;;1.00;0.80;;;30.70;95.70;;;;;;5076001;28;20810;-71
2023/08/11 11:16:27;;;;;;;1.00;0.80;;;30.70;96.00;;;;;;5074172;28;20437;-72
2023/08/11 11:18:55;;;;;;;1.10;0.80;;;30.80;95.90;;;;;;5073883;28;20481;-72
2023/08/11 11:21:24;;;;;;;1.00;0.80;;;30.60;95.60;;;;;;5073238;28;20415;-71
2023/08/11 11:23:52;;;;;;;1.00;0.70;;;30.40;95.80;;;;;;5076072;28;20441;-71
2023/08/11 11:26:22;;;;;;;1.95;0.80;;;30.50;96.00;;;;;;5059297;28;20553;-72
2023/08/11 11:28:50;;;;;;;1.00;0.80;;;30.80;95.10;;;;;;5061300;28;21049;-72
2023/08/11 11:31:17;;;;;;;1.10;0.70;;;31.10;94.80;;;;;;5056547;28;20436;-72
2023/08/11 11:33:45;;;;;;;1.00;0.80;;;31.40;93.80;;;;;;5058835;28;20461;-71
2023/08/11 11:36:14;;;;;;;0.87;0.70;;;31.80;92.80;;;;;;5076423;28;20411;-72
2023/08/11 11:38:41;;;;;;;1.40;0.80;;;31.80;92.80;;;;;;5071807;28;20508;-72
2023/08/11 11:41:11;;;;;;;1.10;0.80;;;31.70;92.00;;;;;;5076323;28;20419;-72
2023/08/11 11:43:38;;;;;;;1.00;0.80;;;31.80;91.30;;;;;;5068548;28;20571;-72
2023/08/11 11:46:14;;;;;;;1.10;0.90;;;32.00;90.90;;;;;;5057037;28;20429;-72
2023/08/11 11:48:43;;;;;;;1.30;0.80;;;32.10;90.30;;;;;;5060566;28;20886;-72
2023/08/11 11:51:11;;;;;;;1.40;0.80;;;32.20;90.20;;;;;;5076533;28;20863;-72
2023/08/11 11:53:39;;;;;;;1.10;0.80;;;32.10;89.40;;;;;;5070940;28;20458;-72
2023/08/11 11:56:07;;;;;;;0.90;0.80;;;32.00;90.10;;;;;;5075560;28;20415;-72
2023/08/11 11:58:34;;;;;;;1.23;0.80;;;32.20;88.00;;;;;;5075134;28;20564;-72
2023/08/11 12:01:11;;;;;;;1.05;0.80;;;32.50;86.90;;;;;;5074675;28;20839;-72
2023/08/11 12:03:38;;;;;;;1.00;0.80;;;32.80;85.70;;;;;;5064201;28;20853;-71
2023/08/11 12:06:06;;;;;;;0.90;0.73;;;32.80;84.20;;;;;;5054504;28;20435;-71
2023/08/11 12:08:34;;;;;;;0.90;0.80;;;32.70;83.30;;;;;;5060923;28;20425;-71
2023/08/11 12:11:04;;;;;;;1.10;0.80;;;32.80;83.50;;;;;;5056228;28;20444;-72
2023/08/11 12:13:31;;;;;;;1.45;0.80;;;32.90;81.90;;;;;;5057737;28;20437;-72
2023/08/11 12:15:58;;;;;;;0.90;0.80;;;32.30;82.30;;;;;;5055090;28;20519;-72
2023/08/11 12:18:27;;;;;;;1.00;0.80;;;32.00;83.20;;;;;;5070873;28;20481;-72
2023/08/11 12:20:54;;;;;;;1.05;0.80;;;32.20;83.60;;;;;;5075877;28;20432;-72
2023/08/11 12:23:24;;;;;;;0.90;0.80;;;32.30;82.20;;;;;;5058860;28;20528;-71
2023/08/11 12:25:52;;;;;;;1.10;0.80;;;32.50;82.60;;;;;;5058093;28;20498;-71
2023/08/11 12:28:21;;;;;;;1.00;0.80;;;32.80;80.20;;;;;;5058895;28;20495;-72
2023/08/11 12:30:48;;;;;;;1.27;0.80;;;33.10;78.80;;;;;;5058267;28;20440;-71
2023/08/11 12:33:15;;;;;;;1.00;0.70;;;32.90;79.00;;;;;;5057661;28;20429;-71
2023/08/11 12:35:42;;;;;;;1.00;0.70;;;32.50;78.90;;;;;;5056607;28;20512;-72
2023/08/11 12:38:12;;;;;;;1.50;0.90;;;32.40;79.90;;;;;;5075493;28;20938;-71
2023/08/11 12:40:40;;;;;;;1.60;0.80;;;32.70;79.90;;;;;;5072011;28;21103;-71
2023/08/11 12:43:07;;;;;;;1.10;0.90;;;32.80;77.30;;;;;;5054232;28;20429;-71
2023/08/11 12:45:35;;;;;;;1.10;0.80;;;32.80;77.40;;;;;;5053861;28;20523;-71
2023/08/11 12:48:02;;;;;;;1.45;0.80;;;33.00;76.30;;;;;;5053853;28;20413;-72
2023/08/11 12:50:29;;;;;;;1.10;0.80;;;33.00;76.60;;;;;;5059137;28;20864;-71
2023/08/11 12:52:56;;;;;;;1.60;0.80;;;33.10;74.70;;;;;;5055829;28;20447;-70
2023/08/11 12:55:23;;;;;;;1.35;0.70;;;32.50;75.30;;;;;;5056336;28;20464;-72